Time;durP1;ratioP1;P1;durP2;ratioP2;P2;SDS_P1;SDS_P2;PMS_P1;PMS_P2;Temp;Humidity;BMP_temperature;BMP_pressure;BME280_temperature;BME280_humidity;BME280_pressure;Samples;Min_cycle;Max_cycle;Signal;HPM_P1;HPM_P2
2024/02/13 00:01:39;;;;;;;2.22;1.92;;;4.30;99.90;;;;;;5011122;28;20587;-72
2024/02/13 00:04:08;;;;;;;2.22;1.55;;;4.30;99.90;;;;;;5010774;28;20227;-72
2024/02/13 00:06:36;;;;;;;2.67;1.77;;;4.30;99.90;;;;;;5011044;28;20218;-71
2024/02/13 00:09:03;;;;;;;3.65;2.00;;;4.20;99.90;;;;;;5010794;28;20577;-72
2024/02/13 00:11:30;;;;;;;2.70;1.38;;;4.20;99.90;;;;;;5010772;28;20264;-72
2024/02/13 00:13:57;;;;;;;3.67;1.50;;;4.10;99.90;;;;;;5010552;28;20252;-72
2024/02/13 00:16:24;;;;;;;1.70;1.20;;;4.10;99.90;;;;;;5010933;28;20296;-72
2024/02/13 00:18:51;;;;;;;1.75;1.60;;;4.10;99.90;;;;;;5010689;28;20580;-72
2024/02/13 00:21:18;;;;;;;6.03;1.70;;;4.10;99.90;;;;;;5010841;28;20226;-72
2024/02/13 00:23:46;;;;;;;2.00;1.55;;;4.10;99.90;;;;;;5010546;28;20282;-73
2024/02/13 00:26:13;;;;;;;1.77;1.67;;;4.10;99.90;;;;;;5010864;28;20215;-72
2024/02/13 00:28:39;;;;;;;1.25;1.15;;;4.00;99.90;;;;;;5010435;28;20208;-72
2024/02/13 00:31:07;;;;;;;5.80;2.13;;;3.90;99.90;;;;;;5010514;28;20207;-71
2024/02/13 00:33:34;;;;;;;1.20;1.10;;;3.80;99.90;;;;;;5010474;28;20230;-71
2024/02/13 00:36:01;;;;;;;1.52;1.20;;;3.80;99.90;;;;;;5010707;28;20681;-72
2024/02/13 00:38:29;;;;;;;2.00;1.80;;;3.70;99.90;;;;;;5010519;28;20215;-72
2024/02/13 00:40:57;;;;;;;1.63;1.23;;;3.70;99.90;;;;;;5010477;28;20199;-72
2024/02/13 00:43:24;;;;;;;6.45;1.92;;;3.60;99.90;;;;;;5010563;28;20231;-72
2024/02/13 00:45:50;;;;;;;3.40;1.40;;;3.60;99.90;;;;;;5011191;28;20203;-72
2024/02/13 00:48:18;;;;;;;3.10;1.73;;;3.60;99.90;;;;;;5014269;28;20217;-71
2024/02/13 00:50:46;;;;;;;1.50;1.40;;;3.60;99.90;;;;;;5014007;28;20254;-72
2024/02/13 00:53:15;;;;;;;2.67;1.38;;;3.60;99.90;;;;;;5013946;28;20234;-72
2024/02/13 00:55:43;;;;;;;3.88;1.77;;;3.70;99.90;;;;;;5013995;28;20671;-72
2024/02/13 00:58:11;;;;;;;1.23;1.13;;;3.80;99.90;;;;;;5013997;28;20253;-72
2024/02/13 01:00:39;;;;;;;1.52;1.30;;;3.80;99.90;;;;;;5014035;28;20214;-72
2024/02/13 01:03:06;;;;;;;1.30;1.20;;;3.90;99.90;;;;;;5013979;28;20224;-72
2024/02/13 01:05:33;;;;;;;1.73;1.60;;;4.00;99.90;;;;;;5014751;28;20206;-72
2024/02/13 01:08:01;;;;;;;1.00;0.90;;;4.10;99.90;;;;;;5014177;28;20290;-72
2024/02/13 01:10:27;;;;;;;1.38;1.20;;;4.20;99.90;;;;;;5013984;28;20212;-71
2024/02/13 01:12:54;;;;;;;1.70;1.13;;;4.20;99.90;;;;;;5013518;28;20222;-72
2024/02/13 01:15:22;;;;;;;2.22;1.48;;;4.40;99.90;;;;;;5014029;28;20265;-72
2024/02/13 01:17:49;;;;;;;3.08;1.40;;;4.40;99.90;;;;;;5013520;28;20211;-72
2024/02/13 01:20:18;;;;;;;2.10;1.52;;;4.40;99.90;;;;;;5014306;28;20696;-72
2024/02/13 01:22:45;;;;;;;6.78;1.73;;;4.40;99.90;;;;;;5013391;28;20712;-72
2024/02/13 01:25:13;;;;;;;1.20;1.10;;;4.50;99.90;;;;;;5013619;28;20214;-72
2024/02/13 01:27:40;;;;;;;1.40;1.05;;;4.50;99.90;;;;;;5013301;28;20682;-72
2024/02/13 01:30:09;;;;;;;1.65;1.33;;;4.50;99.90;;;;;;5007097;28;20212;-72
2024/02/13 01:32:40;;;;;;;4.00;1.60;;;4.50;99.90;;;;;;5013486;28;20302;-72
2024/02/13 01:35:08;;;;;;;2.08;1.10;;;4.50;99.90;;;;;;5013532;28;20210;-72
2024/02/13 01:37:34;;;;;;;3.50;1.65;;;4.60;99.90;;;;;;5013289;28;20211;-72
2024/02/13 01:40:05;;;;;;;2.20;1.40;;;4.50;99.90;;;;;;5013221;28;20205;-72
2024/02/13 01:42:37;;;;;;;1.70;1.60;;;4.50;99.90;;;;;;5012943;28;20231;-72
2024/02/13 01:45:05;;;;;;;2.45;1.10;;;4.50;99.90;;;;;;5013381;28;20211;-72
2024/02/13 01:47:32;;;;;;;1.33;1.10;;;4.50;99.90;;;;;;5013046;28;20234;-72
2024/02/13 01:50:00;;;;;;;2.58;1.30;;;4.60;99.90;;;;;;5013033;28;20270;-72
2024/02/13 01:52:28;;;;;;;2.35;1.35;;;4.50;99.90;;;;;;5012963;28;20217;-72
2024/02/13 01:54:55;;;;;;;2.65;1.70;;;4.50;99.90;;;;;;5012765;28;20231;-72
2024/02/13 01:57:23;;;;;;;1.65;1.13;;;4.60;99.90;;;;;;5011799;28;20208;-72
2024/02/13 01:59:50;;;;;;;2.22;1.60;;;4.60;99.90;;;;;;5012518;28;20211;-72
2024/02/13 02:02:18;;;;;;;0.90;0.88;;;4.60;99.90;;;;;;5012841;28;20206;-72
2024/02/13 02:04:48;;;;;;;2.55;1.23;;;4.50;99.90;;;;;;5012526;28;20676;-72
2024/02/13 02:07:16;;;;;;;1.35;1.25;;;4.40;99.90;;;;;;5012599;28;20283;-72
2024/02/13 02:09:43;;;;;;;1.80;1.20;;;4.40;99.90;;;;;;5012531;28;20213;-72
2024/02/13 02:12:11;;;;;;;1.42;1.13;;;4.30;99.90;;;;;;5012559;28;20294;-72
2024/02/13 02:14:38;;;;;;;1.63;1.15;;;4.20;99.90;;;;;;5012553;28;20310;-72
2024/02/13 02:17:09;;;;;;;2.00;1.55;;;4.10;99.90;;;;;;5012340;28;20311;-72
2024/02/13 02:19:36;;;;;;;1.95;1.48;;;4.10;99.90;;;;;;5012371;28;20209;-72
2024/02/13 02:22:07;;;;;;;1.40;1.02;;;4.00;99.90;;;;;;5012068;28;20252;-72
2024/02/13 02:24:35;;;;;;;2.10;1.65;;;3.80;99.90;;;;;;5012501;28;20259;-72
2024/02/13 02:27:03;;;;;;;3.53;1.40;;;3.70;99.90;;;;;;5011465;28;20199;-72
2024/02/13 02:29:30;;;;;;;1.00;0.90;;;3.70;99.90;;;;;;5012298;28;20208;-72
2024/02/13 02:31:57;;;;;;;1.25;1.15;;;3.60;99.90;;;;;;5012037;28;20210;-72
2024/02/13 02:34:24;;;;;;;3.25;1.17;;;3.60;99.90;;;;;;5012205;28;20231;-72
2024/02/13 02:36:52;;;;;;;2.67;1.17;;;3.50;99.90;;;;;;5011887;28;20286;-72
2024/02/13 02:39:19;;;;;;;1.20;1.10;;;3.40;99.90;;;;;;5012329;28;20214;-72
2024/02/13 02:41:45;;;;;;;2.60;1.30;;;3.40;99.90;;;;;;5011988;28;20623;-73
2024/02/13 02:44:13;;;;;;;2.05;1.45;;;3.40;99.90;;;;;;5011925;28;20234;-73
2024/02/13 02:46:40;;;;;;;1.20;1.05;;;3.30;99.90;;;;;;5011846;28;20202;-73
2024/02/13 02:49:07;;;;;;;3.05;1.58;;;3.30;99.90;;;;;;5011922;28;20218;-73
2024/02/13 02:51:34;;;;;;;1.40;1.05;;;3.30;99.90;;;;;;5012002;28;20214;-72
2024/02/13 02:54:01;;;;;;;2.75;1.30;;;3.40;99.90;;;;;;5011392;28;20235;-73
2024/02/13 02:56:27;;;;;;;1.30;1.20;;;3.40;99.90;;;;;;5012110;28;20213;-73
2024/02/13 02:58:55;;;;;;;2.92;1.90;;;3.30;99.90;;;;;;5011418;28;20613;-73
2024/02/13 03:01:24;;;;;;;2.15;1.70;;;3.30;99.90;;;;;;5011856;28;20263;-73
2024/02/13 03:03:51;;;;;;;2.28;1.10;;;3.30;99.90;;;;;;5011362;28;20254;-73
2024/02/13 03:06:18;;;;;;;1.77;1.55;;;3.30;99.90;;;;;;5011844;28;20213;-73
2024/02/13 03:08:45;;;;;;;6.97;1.42;;;3.30;99.90;;;;;;5011127;28;20213;-72
2024/02/13 03:11:12;;;;;;;1.13;1.02;;;3.30;99.90;;;;;;5011576;28;20226;-72
2024/02/13 03:13:39;;;;;;;1.20;1.10;;;3.30;99.90;;;;;;5011341;28;20230;-73
2024/02/13 03:16:06;;;;;;;1.50;1.23;;;3.30;99.90;;;;;;5011541;28;20202;-72
2024/02/13 03:18:35;;;;;;;1.75;1.48;;;3.20;99.90;;;;;;5011530;28;20210;-72
2024/02/13 03:21:04;;;;;;;1.77;1.33;;;3.20;99.90;;;;;;5010947;28;20207;-72
2024/02/13 03:23:31;;;;;;;2.05;1.10;;;3.20;99.90;;;;;;5011541;28;20663;-72
2024/02/13 03:25:58;;;;;;;1.60;1.50;;;3.20;99.90;;;;;;5011186;28;20213;-73
2024/02/13 03:28:25;;;;;;;1.98;1.45;;;3.20;99.90;;;;;;5011392;28;20203;-73
2024/02/13 03:30:53;;;;;;;1.83;1.10;;;3.20;99.90;;;;;;5011504;28;20310;-73
2024/02/13 03:33:21;;;;;;;1.33;1.20;;;3.20;99.90;;;;;;5011414;28;20603;-73
2024/02/13 03:35:49;;;;;;;2.08;1.25;;;3.30;99.90;;;;;;5011430;28;20540;-73
2024/02/13 03:38:16;;;;;;;12.45;1.90;;;3.20;99.90;;;;;;5011236;28;20222;-73
2024/02/13 03:40:43;;;;;;;2.50;1.50;;;3.10;99.90;;;;;;5010990;28;20206;-73
2024/02/13 03:43:10;;;;;;;1.83;1.35;;;3.10;99.90;;;;;;5011023;28;20233;-73
2024/02/13 03:45:36;;;;;;;2.35;1.52;;;3.10;99.90;;;;;;5011280;28;20206;-73
2024/02/13 03:48:03;;;;;;;2.80;1.35;;;3.10;99.90;;;;;;5010729;28;20217;-73
2024/02/13 03:50:30;;;;;;;2.55;1.88;;;3.00;99.90;;;;;;5011238;28;20587;-73
2024/02/13 03:52:58;;;;;;;4.53;1.58;;;3.00;99.90;;;;;;5010540;28;20222;-73
2024/02/13 03:55:25;;;;;;;1.00;0.90;;;3.00;99.90;;;;;;5019473;28;20691;-73
2024/02/13 03:57:52;;;;;;;1.23;0.95;;;2.90;99.90;;;;;;5010592;28;20210;-73
2024/02/13 04:00:19;;;;;;;1.15;1.05;;;2.90;99.90;;;;;;5011078;28;20206;-73
2024/02/13 04:02:46;;;;;;;1.23;0.90;;;2.90;99.90;;;;;;5010641;28;20583;-73
2024/02/13 04:05:13;;;;;;;2.88;1.15;;;3.00;99.90;;;;;;5010951;28;20294;-73
2024/02/13 04:07:40;;;;;;;3.47;1.20;;;3.00;99.90;;;;;;5010988;28;20237;-73
2024/02/13 04:10:09;;;;;;;1.20;1.10;;;3.10;99.90;;;;;;5010602;28;20230;-73
2024/02/13 04:12:35;;;;;;;1.40;1.25;;;3.20;99.90;;;;;;5010953;28;20257;-71
2024/02/13 04:15:03;;;;;;;1.55;0.70;;;3.20;99.90;;;;;;5010662;28;20222;-72
2024/02/13 04:17:30;;;;;;;4.72;1.73;;;3.30;99.90;;;;;;5011528;28;20252;-72
2024/02/13 04:19:56;;;;;;;1.17;1.08;;;3.30;99.90;;;;;;5012313;28;20207;-72
2024/02/13 04:22:23;;;;;;;2.65;1.33;;;3.30;99.90;;;;;;5014644;28;20210;-72
2024/02/13 04:24:50;;;;;;;4.30;1.20;;;3.30;99.90;;;;;;5014384;28;20210;-73
2024/02/13 04:27:19;;;;;;;1.10;1.00;;;3.20;99.90;;;;;;5014574;28;20206;-73
2024/02/13 04:29:46;;;;;;;1.30;1.20;;;3.20;99.90;;;;;;5014539;28;20213;-72
2024/02/13 04:32:13;;;;;;;2.10;1.55;;;3.20;99.90;;;;;;5014440;28;20238;-72
2024/02/13 04:34:41;;;;;;;4.25;1.25;;;3.20;99.90;;;;;;5014437;28;20223;-72
2024/02/13 04:37:09;;;;;;;4.13;1.20;;;3.20;99.90;;;;;;5013616;28;20265;-71
2024/02/13 04:39:36;;;;;;;2.60;1.20;;;3.20;99.90;;;;;;5014279;28;20207;-72
2024/02/13 04:42:03;;;;;;;1.33;1.00;;;3.20;99.90;;;;;;5014200;28;20215;-72
2024/02/13 04:44:31;;;;;;;1.40;0.95;;;3.20;99.90;;;;;;5014306;28;20233;-72
2024/02/13 04:46:57;;;;;;;1.80;1.40;;;3.20;99.90;;;;;;5013868;28;20210;-72
2024/02/13 04:49:24;;;;;;;5.07;1.80;;;3.20;99.90;;;;;;5014191;28;20216;-72
2024/02/13 04:51:51;;;;;;;1.40;1.30;;;3.10;99.90;;;;;;5013715;28;20657;-72
2024/02/13 04:54:18;;;;;;;3.00;1.50;;;3.20;99.90;;;;;;5013925;28;20230;-72
2024/02/13 04:56:45;;;;;;;8.23;1.65;;;3.20;99.90;;;;;;5013981;28;20209;-72
2024/02/13 04:59:15;;;;;;;1.95;1.42;;;3.20;99.90;;;;;;5013670;28;20234;-72
2024/02/13 05:01:45;;;;;;;2.63;1.63;;;3.20;99.90;;;;;;5013972;28;20211;-72
2024/02/13 05:09:40;;;;;;;3.53;1.42;;;3.10;99.90;;;;;;5013958;28;20213;-72
2024/02/13 05:12:07;;;;;;;1.10;1.00;;;3.10;99.90;;;;;;5013412;28;20222;-72
2024/02/13 05:14:34;;;;;;;1.60;1.50;;;3.10;99.90;;;;;;5013567;28;20654;-72
2024/02/13 05:17:04;;;;;;;7.35;1.45;;;3.10;99.90;;;;;;5013302;28;20215;-72
2024/02/13 05:19:30;;;;;;;2.05;1.20;;;3.10;99.90;;;;;;5013721;28;20642;-72
2024/02/13 05:21:58;;;;;;;2.53;1.55;;;3.00;99.90;;;;;;5013045;28;20437;-73
2024/02/13 05:24:26;;;;;;;1.83;1.30;;;3.00;99.90;;;;;;5013586;28;20718;-72
2024/02/13 05:26:53;;;;;;;1.20;1.10;;;3.00;99.90;;;;;;5013040;28;20230;-72
2024/02/13 05:29:19;;;;;;;1.13;1.02;;;3.00;99.90;;;;;;5013272;28;20218;-72
2024/02/13 05:31:46;;;;;;;1.85;1.15;;;3.00;99.90;;;;;;5013366;28;20206;-72
2024/02/13 05:34:15;;;;;;;1.80;1.17;;;3.00;99.90;;;;;;5015669;28;20234;-72
2024/02/13 05:36:43;;;;;;;1.60;1.50;;;2.90;99.90;;;;;;5016191;28;20207;-72
2024/02/13 05:39:10;;;;;;;2.55;1.10;;;2.90;99.90;;;;;;5012497;28;20642;-72
2024/02/13 05:41:38;;;;;;;2.50;1.65;;;2.90;99.90;;;;;;5019724;28;20218;-72
2024/02/13 05:44:04;;;;;;;1.52;1.42;;;2.80;99.90;;;;;;5013369;28;20220;-72
2024/02/13 05:46:31;;;;;;;1.70;1.23;;;2.80;99.90;;;;;;5013300;28;20207;-72
2024/02/13 05:48:59;;;;;;;1.33;1.23;;;2.80;99.90;;;;;;5012692;28;20214;-72
2024/02/13 05:51:27;;;;;;;3.53;1.60;;;2.80;99.90;;;;;;5013075;28;20213;-72
2024/02/13 05:53:54;;;;;;;2.13;1.52;;;2.80;99.90;;;;;;5012705;28;20237;-72
2024/02/13 05:56:21;;;;;;;2.20;1.42;;;2.80;99.90;;;;;;5013120;28;20257;-72
2024/02/13 05:58:47;;;;;;;1.73;1.63;;;2.90;99.90;;;;;;5012860;28;20564;-72
2024/02/13 06:01:14;;;;;;;3.17;1.55;;;3.00;99.90;;;;;;5012659;28;20215;-72
2024/02/13 06:03:41;;;;;;;4.45;1.73;;;3.00;99.90;;;;;;5012953;28;20245;-73
2024/02/13 06:06:09;;;;;;;1.20;1.10;;;3.10;99.90;;;;;;5012626;28;20217;-71
2024/02/13 06:08:37;;;;;;;1.88;1.27;;;3.10;99.90;;;;;;5012251;28;20672;-72
2024/02/13 06:11:04;;;;;;;6.50;2.10;;;3.10;99.90;;;;;;5017727;28;20454;-71
2024/02/13 06:13:33;;;;;;;2.75;1.38;;;3.10;99.90;;;;;;5012768;28;20226;-71
2024/02/13 06:16:00;;;;;;;1.27;1.17;;;3.20;99.90;;;;;;5012299;28;20223;-71
2024/02/13 06:18:27;;;;;;;2.47;1.38;;;3.20;99.90;;;;;;5012502;28;20214;-71
2024/02/13 06:20:54;;;;;;;3.60;1.58;;;3.30;99.90;;;;;;5012397;28;20203;-72
2024/02/13 06:23:21;;;;;;;1.40;1.30;;;3.30;99.90;;;;;;5012244;28;20223;-72
2024/02/13 06:25:49;;;;;;;2.25;1.70;;;3.40;99.90;;;;;;5012392;28;20217;-71
2024/02/13 06:28:16;;;;;;;1.50;1.30;;;3.50;99.90;;;;;;5011971;28;20211;-72
2024/02/13 06:30:44;;;;;;;11.13;1.80;;;3.50;99.90;;;;;;5012719;28;20207;-72
2024/02/13 06:33:11;;;;;;;2.75;1.58;;;3.60;99.90;;;;;;5012220;28;20218;-71
2024/02/13 06:35:38;;;;;;;6.13;2.40;;;3.60;99.90;;;;;;5012323;28;20246;-72
2024/02/13 06:38:06;;;;;;;2.28;1.55;;;3.60;99.90;;;;;;5011828;28;20205;-70
2024/02/13 06:40:32;;;;;;;1.67;1.23;;;3.60;99.90;;;;;;5012058;28;20645;-70
2024/02/13 06:43:01;;;;;;;4.85;1.42;;;3.60;99.90;;;;;;5011243;28;20661;-69
2024/02/13 06:45:28;;;;;;;2.00;1.85;;;3.60;99.90;;;;;;5011861;28;20209;-70
2024/02/13 06:47:55;;;;;;;3.22;2.17;;;3.60;99.90;;;;;;5011874;28;20203;-69
2024/02/13 06:50:23;;;;;;;1.95;1.77;;;3.60;99.90;;;;;;5011524;28;20202;-69
2024/02/13 06:52:52;;;;;;;1.83;1.65;;;3.70;99.90;;;;;;5011481;28;20227;-69
2024/02/13 06:55:19;;;;;;;2.08;1.40;;;3.80;99.90;;;;;;5011475;28;20227;-69
2024/02/13 06:57:45;;;;;;;1.30;1.20;;;3.90;99.90;;;;;;5011631;28;20230;-69
2024/02/13 07:00:14;;;;;;;2.35;1.98;;;4.00;99.90;;;;;;5011417;28;20234;-69
2024/02/13 07:02:41;;;;;;;3.35;1.45;;;4.00;99.90;;;;;;5011508;28;20227;-69
2024/02/13 07:05:09;;;;;;;7.32;1.75;;;4.00;99.90;;;;;;5009000;28;20412;-70
2024/02/13 07:07:37;;;;;;;1.95;1.20;;;4.00;99.90;;;;;;5011221;28;20595;-70
2024/02/13 07:10:05;;;;;;;1.70;1.23;;;4.00;99.90;;;;;;5011317;28;20199;-70
2024/02/13 07:12:33;;;;;;;2.03;1.10;;;4.00;99.90;;;;;;5011766;28;20696;-71
2024/02/13 07:14:59;;;;;;;2.33;1.52;;;4.10;99.90;;;;;;5011064;28;20223;-71
2024/02/13 07:17:27;;;;;;;4.30;1.60;;;4.10;99.90;;;;;;5011174;28;20215;-71
2024/02/13 07:19:57;;;;;;;1.42;1.10;;;4.10;99.90;;;;;;5011596;28;20203;-71
2024/02/13 07:22:24;;;;;;;1.85;1.30;;;4.20;99.90;;;;;;5010970;28;20212;-73
2024/02/13 07:24:51;;;;;;;1.88;1.08;;;4.30;99.90;;;;;;5011711;28;20626;-75
2024/02/13 07:27:17;;;;;;;3.38;1.70;;;4.30;99.90;;;;;;5011331;28;20210;-74
2024/02/13 07:29:44;;;;;;;1.98;1.50;;;4.40;99.90;;;;;;5011332;28;20206;-74
2024/02/13 07:32:11;;;;;;;1.45;1.30;;;4.40;99.90;;;;;;5011279;28;20229;-73
2024/02/13 07:34:42;;;;;;;1.73;1.45;;;4.40;99.90;;;;;;5011558;28;20237;-77
2024/02/13 07:37:09;;;;;;;3.42;1.90;;;4.50;99.90;;;;;;5008440;28;20594;-75
2024/02/13 07:39:36;;;;;;;2.55;2.03;;;4.50;99.90;;;;;;5011399;28;20210;-76
2024/02/13 07:42:03;;;;;;;1.95;1.75;;;4.50;99.90;;;;;;5011086;28;20711;-74
2024/02/13 07:44:30;;;;;;;2.67;1.52;;;4.70;99.90;;;;;;5011019;28;20237;-73
2024/02/13 07:46:57;;;;;;;1.45;1.27;;;5.00;99.90;;;;;;5010994;28;20207;-74
2024/02/13 07:49:24;;;;;;;1.13;1.02;;;5.70;99.90;;;;;;5011002;28;20237;-74
2024/02/13 07:51:52;;;;;;;1.20;1.10;;;6.90;99.90;;;;;;5011267;28;20590;-74
2024/02/13 07:54:19;;;;;;;3.45;1.40;;;8.10;99.90;;;;;;5011914;28;20238;-74
2024/02/13 07:56:46;;;;;;;1.77;1.05;;;9.30;99.90;;;;;;5015373;28;20216;-74
2024/02/13 07:59:14;;;;;;;6.32;2.03;;;10.20;99.90;;;;;;5015391;28;20244;-72
2024/02/13 08:01:41;;;;;;;1.83;1.33;;;11.20;99.90;;;;;;5015207;28;20203;-72
2024/02/13 08:04:08;;;;;;;2.92;1.17;;;12.20;99.90;;;;;;5011680;28;20236;-74
2024/02/13 08:06:37;;;;;;;3.70;1.80;;;13.00;99.90;;;;;;5015128;28;20584;-74
2024/02/13 08:09:05;;;;;;;2.55;1.38;;;13.60;99.90;;;;;;5015458;28;20202;-75
2024/02/13 08:11:32;;;;;;;2.65;1.77;;;13.70;99.90;;;;;;5015182;28;20286;-74
2024/02/13 08:13:59;;;;;;;2.70;1.17;;;14.10;99.90;;;;;;5014871;28;20722;-74
2024/02/13 08:16:29;;;;;;;1.83;1.10;;;14.10;99.90;;;;;;5014633;28;20222;-73
2024/02/13 08:18:55;;;;;;;2.30;1.02;;;14.30;99.90;;;;;;5009567;28;20473;-75
2024/02/13 08:21:22;;;;;;;2.67;1.40;;;15.20;99.90;;;;;;5008626;28;20210;-74
2024/02/13 08:23:49;;;;;;;1.97;1.10;;;15.90;99.90;;;;;;5019311;28;21019;-75
2024/02/13 08:26:17;;;;;;;1.50;1.23;;;16.40;99.90;;;;;;5014746;28;20449;-74
2024/02/13 08:28:44;;;;;;;1.70;1.20;;;16.80;99.90;;;;;;5013497;28;20465;-75
2024/02/13 08:31:11;;;;;;;2.07;1.33;;;16.90;99.90;;;;;;5006647;28;20462;-73
2024/02/13 08:33:40;;;;;;;1.93;1.10;;;17.40;99.90;;;;;;5017197;28;20870;-74
2024/02/13 08:36:07;;;;;;;1.77;1.40;;;17.90;99.90;;;;;;5013859;28;21002;-74
2024/02/13 08:38:34;;;;;;;2.20;1.30;;;18.30;99.70;;;;;;5013618;28;20461;-74
2024/02/13 08:41:01;;;;;;;1.97;1.30;;;18.40;99.50;;;;;;5013970;28;20838;-75
2024/02/13 08:43:29;;;;;;;1.20;1.00;;;18.60;98.80;;;;;;5013945;28;20481;-74
2024/02/13 08:45:55;;;;;;;4.90;1.73;;;18.80;98.20;;;;;;5018531;28;20457;-75
2024/02/13 08:48:22;;;;;;;1.93;1.30;;;18.70;98.20;;;;;;5013716;28;20514;-74
2024/02/13 08:50:53;;;;;;;2.23;1.30;;;19.20;97.70;;;;;;5014102;28;20469;-75
2024/02/13 08:53:20;;;;;;;4.43;1.30;;;19.90;97.00;;;;;;5013822;28;20937;-74
2024/02/13 08:55:46;;;;;;;3.80;1.50;;;20.50;96.70;;;;;;5016778;28;20481;-75
2024/02/13 08:58:13;;;;;;;2.77;1.60;;;21.20;96.20;;;;;;5014139;28;20469;-75
2024/02/13 09:00:41;;;;;;;2.20;1.40;;;20.00;95.50;;;;;;5013710;28;20818;-76
2024/02/13 09:03:08;;;;;;;2.80;1.00;;;20.30;95.50;;;;;;5013793;28;20488;-73
2024/02/13 09:05:34;;;;;;;1.43;1.00;;;20.60;94.80;;;;;;5013184;28;20465;-74
2024/02/13 09:08:01;;;;;;;1.90;1.23;;;20.90;94.20;;;;;;5013926;28;20466;-73
2024/02/13 09:10:28;;;;;;;1.73;0.93;;;20.50;94.00;;;;;;5014159;28;20526;-74
2024/02/13 09:12:55;;;;;;;1.20;1.10;;;19.30;94.80;;;;;;5014483;28;20492;-73
2024/02/13 09:15:21;;;;;;;1.33;0.90;;;18.70;95.80;;;;;;5013338;28;20481;-74
2024/02/13 09:17:50;;;;;;;2.60;1.00;;;19.00;95.10;;;;;;5013914;28;20468;-74
2024/02/13 09:20:21;;;;;;;2.33;1.00;;;19.00;95.40;;;;;;5013342;28;20527;-73
2024/02/13 09:22:49;;;;;;;2.00;1.20;;;20.00;95.20;;;;;;5013479;28;20572;-73
2024/02/13 09:25:17;;;;;;;1.50;1.20;;;20.70;93.90;;;;;;5013312;28;20970;-74
2024/02/13 09:27:46;;;;;;;2.10;1.10;;;21.30;93.50;;;;;;5013210;28;20465;-74
2024/02/13 09:30:13;;;;;;;1.93;1.37;;;21.60;93.40;;;;;;5013657;28;20469;-73
2024/02/13 09:32:40;;;;;;;3.20;1.30;;;21.10;92.40;;;;;;5013447;28;20494;-74
2024/02/13 09:35:09;;;;;;;1.10;1.00;;;20.90;93.20;;;;;;5013147;28;20485;-74
2024/02/13 09:37:39;;;;;;;1.93;1.10;;;21.10;93.00;;;;;;5012816;28;20955;-74
2024/02/13 09:40:08;;;;;;;2.80;1.30;;;21.70;92.40;;;;;;5013282;28;20858;-74
2024/02/13 09:42:38;;;;;;;1.80;1.20;;;21.90;92.20;;;;;;5012811;28;20527;-72
2024/02/13 09:45:07;;;;;;;2.00;1.53;;;21.20;92.20;;;;;;5013070;28;20468;-74
2024/02/13 09:47:34;;;;;;;3.33;1.33;;;19.50;92.50;;;;;;5013074;28;20560;-72
2024/02/13 09:50:01;;;;;;;2.20;1.63;;;18.40;93.70;;;;;;5012967;28;20469;-73
2024/02/13 09:52:33;;;;;;;1.93;1.33;;;18.40;94.30;;;;;;5012526;28;20468;-74
2024/02/13 09:55:01;;;;;;;1.60;1.23;;;19.00;93.20;;;;;;5012732;28;20557;-73
2024/02/13 09:57:28;;;;;;;5.77;1.37;;;19.20;93.80;;;;;;5012650;28;20928;-73
2024/02/13 09:59:56;;;;;;;3.23;1.00;;;19.90;92.70;;;;;;5012642;28;21008;-74
2024/02/13 10:02:28;;;;;;;1.33;1.20;;;20.40;92.60;;;;;;5012444;28;20471;-74
2024/02/13 10:04:55;;;;;;;4.13;1.13;;;20.60;92.30;;;;;;5012857;28;20466;-72
2024/02/13 10:07:23;;;;;;;1.97;1.47;;;21.00;92.80;;;;;;5012479;28;20461;-73
2024/02/13 10:09:52;;;;;;;3.10;1.10;;;21.10;91.60;;;;;;5012623;28;20462;-73
2024/02/13 10:12:19;;;;;;;1.73;1.10;;;21.20;91.80;;;;;;5012202;28;20986;-72
2024/02/13 10:14:46;;;;;;;2.93;1.17;;;21.40;90.80;;;;;;5012386;28;20458;-72
2024/02/13 10:17:14;;;;;;;2.27;1.40;;;20.60;91.60;;;;;;5011328;28;20481;-73
2024/02/13 10:19:41;;;;;;;1.33;1.00;;;20.40;91.10;;;;;;5012190;28;20556;-73
2024/02/13 10:22:10;;;;;;;2.27;1.23;;;20.20;91.00;;;;;;5012183;28;20469;-74
2024/02/13 10:24:37;;;;;;;1.10;1.00;;;19.50;91.90;;;;;;5012372;28;20830;-72
2024/02/13 10:27:06;;;;;;;2.13;1.60;;;20.00;91.90;;;;;;5012620;28;20457;-73
2024/02/13 10:29:41;;;;;;;1.10;1.00;;;20.10;91.30;;;;;;5012630;28;20524;-73
2024/02/13 10:32:08;;;;;;;2.03;1.23;;;20.10;91.30;;;;;;5015568;28;20465;-72
2024/02/13 10:34:37;;;;;;;2.60;1.37;;;19.70;91.80;;;;;;5012388;28;20485;-73
2024/02/13 10:37:08;;;;;;;2.50;1.27;;;20.10;91.60;;;;;;5012416;28;20489;-74
2024/02/13 10:39:35;;;;;;;2.70;1.67;;;21.30;91.20;;;;;;5012352;28;20472;-73
2024/02/13 10:42:09;;;;;;;2.10;1.23;;;21.40;90.90;;;;;;5012000;28;20461;-74
2024/02/13 10:44:43;;;;;;;1.93;1.20;;;22.30;90.50;;;;;;5011779;28;21014;-73
2024/02/13 10:47:11;;;;;;;2.40;1.30;;;21.90;90.00;;;;;;5007104;28;20454;-73
2024/02/13 10:49:46;;;;;;;2.27;1.10;;;22.80;90.10;;;;;;5011864;28;20516;-74
2024/02/13 10:52:14;;;;;;;1.27;1.17;;;22.80;88.90;;;;;;5007418;28;20468;-74
2024/02/13 10:54:46;;;;;;;1.20;1.07;;;23.00;86.30;;;;;;5011876;28;20472;-75
2024/02/13 10:57:15;;;;;;;1.60;1.17;;;23.20;86.60;;;;;;5007057;28;20550;-74
2024/02/13 10:59:44;;;;;;;1.00;0.90;;;23.40;85.70;;;;;;5011321;28;20458;-74
2024/02/13 11:02:14;;;;;;;1.63;1.53;;;23.40;86.20;;;;;;5006278;28;20464;-74
2024/02/13 11:04:46;;;;;;;3.73;1.37;;;23.20;84.00;;;;;;5011603;28;20658;-74
2024/02/13 11:07:13;;;;;;;2.83;1.43;;;23.50;82.70;;;;;;5006834;28;20844;-74
2024/02/13 11:09:40;;;;;;;1.50;1.07;;;23.90;82.90;;;;;;5011467;28;20469;-74
2024/02/13 11:12:09;;;;;;;3.00;2.00;;;24.10;82.10;;;;;;5011454;28;20469;-74
2024/02/13 11:14:38;;;;;;;1.33;1.07;;;24.10;82.00;;;;;;5011291;28;20512;-74
2024/02/13 11:17:09;;;;;;;1.50;1.30;;;24.50;82.60;;;;;;5011295;28;20481;-74
2024/02/13 11:19:40;;;;;;;2.17;1.10;;;23.90;82.60;;;;;;5011277;28;20547;-74
2024/02/13 11:22:09;;;;;;;1.73;1.30;;;23.90;81.60;;;;;;5011309;28;20561;-74
2024/02/13 11:24:44;;;;;;;1.40;0.90;;;23.00;81.20;;;;;;5011151;28;20505;-74
2024/02/13 11:27:17;;;;;;;2.40;0.93;;;23.20;84.00;;;;;;5005967;28;20456;-74
2024/02/13 11:29:47;;;;;;;1.60;1.03;;;23.30;79.40;;;;;;5010955;28;20463;-74
2024/02/13 11:32:25;;;;;;;1.20;1.10;;;21.90;80.10;;;;;;5011234;28;20496;-75
2024/02/13 11:34:54;;;;;;;1.33;1.07;;;22.60;79.60;;;;;;5011213;28;20468;-74
2024/02/13 11:37:27;;;;;;;2.00;1.57;;;21.90;79.60;;;;;;5011069;28;20493;-74
2024/02/13 11:39:54;;;;;;;1.30;1.00;;;21.40;81.50;;;;;;5011188;28;20462;-74
2024/02/13 11:42:23;;;;;;;1.30;1.00;;;21.40;81.90;;;;;;5011085;28;20461;-75
2024/02/13 11:44:51;;;;;;;1.73;1.10;;;20.60;83.20;;;;;;5010719;28;20450;-74
2024/02/13 11:47:19;;;;;;;1.20;1.10;;;19.50;83.40;;;;;;5011018;28;20457;-74
2024/02/13 11:49:50;;;;;;;2.10;1.30;;;19.30;85.30;;;;;;5010760;28;20825;-73
2024/02/13 11:52:17;;;;;;;1.80;1.33;;;19.40;83.90;;;;;;5010963;28;20461;-73
2024/02/13 11:54:46;;;;;;;1.20;1.00;;;20.00;82.20;;;;;;5011134;28;20465;-74
2024/02/13 11:57:13;;;;;;;1.20;1.10;;;19.40;83.40;;;;;;5011040;28;20517;-74
2024/02/13 11:59:40;;;;;;;0.90;0.80;;;19.80;85.90;;;;;;5010812;28;20468;-74
2024/02/13 12:02:17;;;;;;;1.43;1.10;;;19.40;82.70;;;;;;5011048;28;20468;-74
2024/02/13 12:04:44;;;;;;;1.20;0.90;;;18.40;84.10;;;;;;5010806;28;20469;-74
2024/02/13 12:07:11;;;;;;;1.30;0.97;;;18.50;84.00;;;;;;5010933;28;20462;-74
2024/02/13 12:09:40;;;;;;;2.77;1.27;;;19.40;83.20;;;;;;5010102;28;20461;-75
2024/02/13 12:12:09;;;;;;;5.50;1.40;;;20.10;82.30;;;;;;5010311;28;20817;-75
2024/02/13 12:14:36;;;;;;;1.00;0.90;;;20.50;82.70;;;;;;5010744;28;20481;-75
2024/02/13 12:17:06;;;;;;;1.73;1.00;;;21.50;81.50;;;;;;5010706;28;20486;-74
2024/02/13 12:19:36;;;;;;;1.73;1.20;;;22.40;80.30;;;;;;5010845;28;20457;-74
2024/02/13 12:22:08;;;;;;;2.10;1.00;;;23.00;79.00;;;;;;5010805;28;20461;-74
2024/02/13 12:24:35;;;;;;;2.17;1.30;;;23.20;78.60;;;;;;5010860;28;20488;-75
2024/02/13 12:27:04;;;;;;;1.10;1.00;;;23.00;78.90;;;;;;5010899;28;20462;-75
2024/02/13 12:29:31;;;;;;;1.30;0.90;;;22.50;80.50;;;;;;5012637;28;20461;-73
2024/02/13 12:32:00;;;;;;;0.97;0.87;;;22.10;80.50;;;;;;5009287;28;20461;-73
2024/02/13 12:34:29;;;;;;;2.50;1.03;;;21.50;80.10;;;;;;5010774;28;20484;-73
2024/02/13 12:36:58;;;;;;;1.20;1.00;;;21.30;80.50;;;;;;5006004;28;20539;-72
2024/02/13 12:39:26;;;;;;;1.13;1.00;;;21.20;80.40;;;;;;4997403;28;20474;-74
2024/02/13 12:41:57;;;;;;;0.90;0.80;;;20.20;81.00;;;;;;5016808;28;20473;-73
2024/02/13 12:44:23;;;;;;;2.10;1.23;;;18.90;82.40;;;;;;5014229;28;20481;-72
2024/02/13 12:46:51;;;;;;;0.87;0.80;;;18.20;83.90;;;;;;5013510;28;20453;-73
2024/02/13 12:49:19;;;;;;;1.67;0.80;;;17.30;86.10;;;;;;5014222;28;20465;-74
2024/02/13 12:51:47;;;;;;;1.10;0.90;;;16.60;87.10;;;;;;5013506;28;20523;-74
2024/02/13 12:54:15;;;;;;;1.60;1.00;;;15.90;88.70;;;;;;5013922;28;20568;-74
2024/02/13 12:56:43;;;;;;;1.30;0.80;;;15.40;89.10;;;;;;5013353;28;20500;-75
2024/02/13 12:59:12;;;;;;;1.90;0.90;;;15.00;89.60;;;;;;5007355;28;20468;-75
2024/02/13 13:01:44;;;;;;;1.00;0.80;;;14.50;90.60;;;;;;5014101;28;21026;-76